createdAt,value
2022-08-26T00:00:21.189Z,22.15
2022-08-26T00:02:25.150Z,22.65
2022-08-26T00:04:29.896Z,22.62
2022-08-26T00:06:33.513Z,22.76
2022-08-26T00:08:36.587Z,22.13
2022-08-26T00:10:42.286Z,22.54
2022-08-26T00:12:45.137Z,22.75
2022-08-26T00:14:47.881Z,22.71
2022-08-26T00:16:50.525Z,23.06
2022-08-26T00:18:53.328Z,22.94
2022-08-26T00:20:57.181Z,23.05
2022-08-26T00:22:59.955Z,22.73
2022-08-26T00:25:02.881Z,22.89
2022-08-26T00:27:06.329Z,22.83
2022-08-26T00:29:09.501Z,22.73
2022-08-26T00:31:12.272Z,22.77
2022-08-26T00:33:16.765Z,22.42
2022-08-26T00:35:22.223Z,22.70
2022-08-26T00:37:36.551Z,22.89
2022-08-26T00:39:39.169Z,21.93
2022-08-26T00:41:42.134Z,22.59
2022-08-26T00:43:47.216Z,22.89
2022-08-26T00:46:04.285Z,22.49
2022-08-26T00:48:09.847Z,23.12
2022-08-26T00:50:27.241Z,23.04
2022-08-26T00:52:31.107Z,22.97
2022-08-26T00:54:42.312Z,22.98
2022-08-26T00:56:56.667Z,23.10
2022-08-26T00:59:04.217Z,23.19
2022-08-26T01:01:07.374Z,22.33
2022-08-26T01:03:11.640Z,23.09
2022-08-26T01:05:18.353Z,22.49
2022-08-26T01:07:22.008Z,22.86
2022-08-26T01:09:25.427Z,22.79
2022-08-26T01:11:28.386Z,22.39
2022-08-26T01:13:31.852Z,22.98
2022-08-26T01:15:40.580Z,23.09
2022-08-26T01:17:45.063Z,23.05
2022-08-26T01:19:55.511Z,22.92
2022-08-26T01:22:06.702Z,22.75
2022-08-26T01:24:11.563Z,22.95
2022-08-26T01:26:23.473Z,23.22
2022-08-26T01:28:31.915Z,22.36
2022-08-26T01:30:35.733Z,22.98
2022-08-26T01:32:39.748Z,23.06
2022-08-26T01:34:42.556Z,23.05
2022-08-26T01:36:51.091Z,23.24
2022-08-26T01:38:54.411Z,23.23
2022-08-26T01:40:57.127Z,22.97
2022-08-26T01:43:03.019Z,23.26
2022-08-26T01:45:12.951Z,23.17
2022-08-26T01:47:17.418Z,23.23
2022-08-26T01:49:22.640Z,23.23
2022-08-26T01:51:30.363Z,23.26
2022-08-26T01:53:33.299Z,23.18
2022-08-26T01:55:39.924Z,22.58
2022-08-26T01:57:45.007Z,23.01
2022-08-26T01:59:49.443Z,23.15
2022-08-26T02:01:53.263Z,22.52
2022-08-26T02:04:02.023Z,23.15
2022-08-26T02:06:09.381Z,23.14
2022-08-26T02:08:14.761Z,23.14
2022-08-26T02:10:25.310Z,22.39
2022-08-26T02:12:28.561Z,22.96
2022-08-26T02:14:43.931Z,23.06
2022-08-26T02:16:50.331Z,22.97
2022-08-26T02:18:55.612Z,22.99
2022-08-26T02:20:58.573Z,22.44
2022-08-26T02:23:01.186Z,22.88
2022-08-26T02:25:23.109Z,23.01
2022-08-26T02:27:32.099Z,22.00
2022-08-26T02:29:45.610Z,22.96
2022-08-26T02:31:48.693Z,22.95
2022-08-26T02:33:51.724Z,23.02
2022-08-26T02:35:54.312Z,22.75
2022-08-26T02:38:11.117Z,22.78
2022-08-26T02:40:16.667Z,22.99
2022-08-26T02:42:19.365Z,22.81
2022-08-26T02:44:22.029Z,22.79
2022-08-26T02:46:27.926Z,22.47
2022-08-26T02:48:32.852Z,22.12
2022-08-26T02:50:36.122Z,22.71
2022-08-26T02:52:38.749Z,22.67
2022-08-26T02:54:41.374Z,22.76
2022-08-26T02:56:44.946Z,22.31
2022-08-26T02:58:47.639Z,22.77
2022-08-26T03:00:52.983Z,22.46
2022-08-26T03:02:56.020Z,22.61
2022-08-26T03:05:02.252Z,22.05
2022-08-26T03:07:06.585Z,22.65
2022-08-26T03:09:09.772Z,22.63
2022-08-26T03:11:14.938Z,22.60
2022-08-26T03:13:19.281Z,22.09
2022-08-26T03:15:32.297Z,22.46
2022-08-26T03:17:34.962Z,22.32
2022-08-26T03:19:38.558Z,22.32
2022-08-26T03:21:44.094Z,22.26
2022-08-26T03:23:47.007Z,22.37
2022-08-26T03:25:53.850Z,22.31
2022-08-26T03:27:56.528Z,22.16
2022-08-26T03:30:20.768Z,22.21
2022-08-26T03:32:23.494Z,22.17
2022-08-26T03:34:29.632Z,22.40
2022-08-26T03:36:32.361Z,22.23
2022-08-26T03:38:37.761Z,21.76
2022-08-26T03:41:06.140Z,22.35
2022-08-26T03:43:12.768Z,22.38
2022-08-26T03:45:17.571Z,22.20
2022-08-26T03:47:20.394Z,22.20
2022-08-26T03:49:23.119Z,22.20
2022-08-26T03:51:25.960Z,22.18
2022-08-26T03:53:29.043Z,21.84
2022-08-26T03:55:33.468Z,22.27
2022-08-26T03:57:36.493Z,22.10
2022-08-26T03:59:39.104Z,21.57
2022-08-26T04:01:44.085Z,21.80
2022-08-26T04:04:00.483Z,21.99
2022-08-26T04:06:03.996Z,22.05
2022-08-26T04:08:07.015Z,22.09
2022-08-26T04:10:12.746Z,22.21
2022-08-26T04:12:15.715Z,22.21
2022-08-26T04:14:23.720Z,22.21
2022-08-26T04:16:28.984Z,22.18
2022-08-26T04:18:37.219Z,22.16
2022-08-26T04:20:39.965Z,22.20
2022-08-26T04:22:42.713Z,22.07
2022-08-26T04:24:46.454Z,21.42
2022-08-26T04:26:50.411Z,21.28
2022-08-26T04:28:55.756Z,22.07
2022-08-26T04:30:58.518Z,22.12
2022-08-26T04:33:14.129Z,22.23
2022-08-26T04:35:45.472Z,21.98
2022-08-26T04:37:50.922Z,22.08
2022-08-26T04:39:54.083Z,21.84
2022-08-26T04:41:57.665Z,21.38
2022-08-26T04:44:02.538Z,21.40
2022-08-26T04:46:06.924Z,21.90
2022-08-26T04:48:11.070Z,22.07
2022-08-26T04:50:15.301Z,22.14
2022-08-26T04:52:27.227Z,21.96
2022-08-26T04:54:30.863Z,22.13
2022-08-26T04:56:39.500Z,22.29
2022-08-26T04:58:42.285Z,22.43
2022-08-26T05:00:52.451Z,22.39
2022-08-26T05:02:56.419Z,22.29
2022-08-26T05:04:59.093Z,22.17
2022-08-26T05:07:03.053Z,22.49
2022-08-26T05:09:06.052Z,22.33
2022-08-26T05:11:10.056Z,22.52
2022-08-26T05:13:15.764Z,22.60
2022-08-26T05:15:18.607Z,22.57
2022-08-26T05:17:21.178Z,22.49
2022-08-26T05:19:23.825Z,22.38
2022-08-26T05:21:28.987Z,22.55
2022-08-26T05:23:32.249Z,22.67
2022-08-26T05:25:43.199Z,22.75
2022-08-26T05:27:46.012Z,22.45
2022-08-26T05:29:48.674Z,22.92
2022-08-26T05:31:57.278Z,22.69
2022-08-26T05:34:03.757Z,23.03
2022-08-26T05:36:10.051Z,23.26
2022-08-26T05:38:18.538Z,23.35
2022-08-26T05:40:27.772Z,23.42
2022-08-26T05:42:31.278Z,23.47
2022-08-26T05:44:55.511Z,23.64
2022-08-26T05:46:56.486Z,23.51
2022-08-26T05:48:59.674Z,23.40
2022-08-26T05:51:10.086Z,23.43
2022-08-26T05:53:16.352Z,23.99
2022-08-26T05:55:20.609Z,23.97
2022-08-26T05:57:23.284Z,23.64
2022-08-26T05:59:27.135Z,24.14
2022-08-26T06:01:29.908Z,24.25
2022-08-26T06:03:35.799Z,24.26
2022-08-26T06:05:41.049Z,23.97
2022-08-26T06:08:02.545Z,24.25
2022-08-26T06:10:30.911Z,24.67
2022-08-26T06:12:30.265Z,24.53
2022-08-26T06:14:33.586Z,24.15
2022-08-26T06:16:41.151Z,24.33
2022-08-26T06:18:46.841Z,24.98
2022-08-26T06:20:57.670Z,25.08
2022-08-26T06:23:19.352Z,24.68
2022-08-26T06:25:39.804Z,25.01
2022-08-26T06:27:44.540Z,24.90
2022-08-26T06:29:47.514Z,25.30
2022-08-26T06:31:50.417Z,24.77
2022-08-26T06:33:55.190Z,25.27
2022-08-26T06:35:57.801Z,25.08
2022-08-26T06:38:01.514Z,25.19
2022-08-26T06:40:05.701Z,25.53
2022-08-26T06:42:08.501Z,25.04
2022-08-26T06:44:12.799Z,25.62
2022-08-26T06:46:20.367Z,25.40
2022-08-26T06:48:23.675Z,25.85
2022-08-26T06:50:26.312Z,26.01
2022-08-26T06:52:28.921Z,26.01
2022-08-26T06:54:35.470Z,26.17
2022-08-26T06:56:43.914Z,26.56
2022-08-26T06:58:46.688Z,26.31
2022-08-26T07:00:49.555Z,26.59
2022-08-26T07:02:52.192Z,26.64
2022-08-26T07:04:54.827Z,26.80
2022-08-26T07:07:00.315Z,26.70
2022-08-26T07:09:05.842Z,26.91
2022-08-26T07:11:13.873Z,26.77
2022-08-26T07:13:16.535Z,26.90
2022-08-26T07:15:35.814Z,27.05
2022-08-26T07:17:38.544Z,26.90
2022-08-26T07:19:43.076Z,26.74
2022-08-26T07:21:51.565Z,26.29
2022-08-26T07:24:01.309Z,26.44
2022-08-26T07:26:11.345Z,26.56
2022-08-26T07:28:14.133Z,25.86
2022-08-26T07:30:16.685Z,26.33
2022-08-26T07:32:20.463Z,25.93
2022-08-26T07:34:26.230Z,26.37
2022-08-26T07:36:29.684Z,26.38
2022-08-26T07:38:33.837Z,26.64
2022-08-26T07:40:37.995Z,26.22
2022-08-26T07:42:46.676Z,26.53
2022-08-26T07:45:19.762Z,27.03
2022-08-26T07:47:25.851Z,26.93
2022-08-26T07:49:29.913Z,26.32
2022-08-26T07:51:33.351Z,27.18
2022-08-26T07:53:36.549Z,26.86
2022-08-26T07:55:39.267Z,26.60
2022-08-26T07:57:42.253Z,26.88
2022-08-26T07:59:44.845Z,27.04
2022-08-26T08:01:48.696Z,27.32
2022-08-26T08:03:53.381Z,27.53
2022-08-26T08:05:56.719Z,27.71
2022-08-26T08:08:26.293Z,27.95
2022-08-26T08:10:26.709Z,27.63
2022-08-26T08:12:29.349Z,27.98
2022-08-26T08:14:31.942Z,28.20
2022-08-26T08:16:36.339Z,28.22
2022-08-26T08:18:40.831Z,28.19
2022-08-26T08:20:59.300Z,28.39
2022-08-26T08:23:07.831Z,27.99
2022-08-26T08:25:11.949Z,28.20
2022-08-26T08:27:14.527Z,28.16
2022-08-26T08:29:21.154Z,28.04
2022-08-26T08:31:55.849Z,28.38
2022-08-26T08:33:52.358Z,28.66
2022-08-26T08:35:55.466Z,28.74
2022-08-26T08:37:58.157Z,28.84
2022-08-26T08:40:00.886Z,28.56
2022-08-26T08:42:46.938Z,29.30
2022-08-26T08:44:52.788Z,28.75
2022-08-26T08:47:15.820Z,29.47
2022-08-26T08:49:22.716Z,29.25
2022-08-26T08:51:42.782Z,29.74
2022-08-26T08:53:49.885Z,29.85
2022-08-26T08:56:35.451Z,29.73
2022-08-26T08:58:53.533Z,29.94
2022-08-26T09:01:05.218Z,30.02
2022-08-26T09:03:32.180Z,29.76
2022-08-26T09:05:48.506Z,29.97
2022-08-26T09:08:19.807Z,29.98
2022-08-26T09:10:41.046Z,29.87
2022-08-26T09:12:47.638Z,29.77
2022-08-26T09:14:51.271Z,29.83
2022-08-26T09:17:10.292Z,29.66
2022-08-26T09:19:47.995Z,29.49
2022-08-26T09:21:59.541Z,29.45
2022-08-26T09:24:02.269Z,28.75
2022-08-26T09:26:17.301Z,29.28
2022-08-26T09:28:24.818Z,29.20
2022-08-26T09:30:33.236Z,28.58
2022-08-26T09:32:35.895Z,28.94
2022-08-26T09:35:11.719Z,29.01
2022-08-26T09:39:48.657Z,28.95
2022-08-26T09:42:19.090Z,29.12
2022-08-26T09:44:21.913Z,29.13
2022-08-26T09:46:28.173Z,28.99
2022-08-26T09:48:37.501Z,29.22
2022-08-26T09:50:55.572Z,29.27
2022-08-26T09:53:16.176Z,29.29
2022-08-26T09:55:23.744Z,29.11
2022-08-26T09:57:30.046Z,29.05
2022-08-26T09:59:33.621Z,28.86
2022-08-26T10:01:42.939Z,29.01
2022-08-26T10:03:47.090Z,28.92
2022-08-26T10:06:16.548Z,29.32
2022-08-26T10:08:36.316Z,29.56
2022-08-26T10:10:45.073Z,29.67
2022-08-26T10:13:08.063Z,30.15
2022-08-26T10:15:13.089Z,30.49
2022-08-26T10:17:27.545Z,30.76
2022-08-26T10:20:23.491Z,30.84
2022-08-26T10:22:31.761Z,31.07
2022-08-26T10:24:43.251Z,31.13
2022-08-26T10:27:34.958Z,31.16
2022-08-26T10:29:45.826Z,31.21
2022-08-26T10:32:21.866Z,31.30
2022-08-26T10:34:24.848Z,31.36
2022-08-26T10:39:32.184Z,31.83
2022-08-26T10:41:44.350Z,32.02
2022-08-26T10:43:57.912Z,32.10
2022-08-26T10:46:08.993Z,31.73
2022-08-26T10:48:25.407Z,32.26
2022-08-26T10:50:42.464Z,32.22
2022-08-26T10:53:07.585Z,32.41
2022-08-26T10:55:40.998Z,32.30
2022-08-26T10:58:26.422Z,32.31
2022-08-26T11:00:57.616Z,31.97
2022-08-26T11:03:47.733Z,32.37
2022-08-26T11:06:20.335Z,32.63
2022-08-26T11:08:22.864Z,32.94
2022-08-26T11:10:59.049Z,33.29
2022-08-26T11:13:04.764Z,33.56
2022-08-26T11:15:36.140Z,33.73
2022-08-26T11:17:45.896Z,33.68
2022-08-26T11:20:02.595Z,33.84
2022-08-26T11:22:09.315Z,33.96
2022-08-26T11:24:42.606Z,34.00
2022-08-26T11:26:56.428Z,34.08
2022-08-26T11:28:59.734Z,33.58
2022-08-26T11:31:12.829Z,33.86
2022-08-26T11:33:51.016Z,33.82
2022-08-26T11:35:53.765Z,33.48
2022-08-26T11:38:04.696Z,33.06
2022-08-26T11:40:13.327Z,32.75
2022-08-26T11:42:50.741Z,32.20
2022-08-26T11:44:58.063Z,31.89
2022-08-26T11:47:03.099Z,31.53
2022-08-26T11:49:07.546Z,31.20
2022-08-26T11:51:23.413Z,30.91
2022-08-26T11:53:28.632Z,31.10
2022-08-26T11:55:37.153Z,30.91
2022-08-26T11:57:47.454Z,30.73
2022-08-26T11:59:50.070Z,30.17
2022-08-26T12:01:54.768Z,29.98
2022-08-26T12:03:58.749Z,30.05
2022-08-26T12:06:02.685Z,29.92
2022-08-26T12:08:12.506Z,29.80
2022-08-26T12:10:30.642Z,29.75
2022-08-26T12:12:37.935Z,29.74
2022-08-26T12:14:41.490Z,29.25
2022-08-26T12:16:44.187Z,29.59
2022-08-26T12:18:46.809Z,29.51
2022-08-26T12:20:53.930Z,29.36
2022-08-26T12:22:59.220Z,29.17
2022-08-26T12:25:07.715Z,28.74
2022-08-26T12:27:30.264Z,28.77
2022-08-26T12:29:38.002Z,28.30
2022-08-26T12:31:44.107Z,28.23
2022-08-26T12:33:49.597Z,28.03
2022-08-26T12:35:56.584Z,27.81
2022-08-26T12:37:59.697Z,27.47
2022-08-26T12:40:26.777Z,27.33
2022-08-26T12:42:43.525Z,27.25
2022-08-26T12:45:01.574Z,26.87
2022-08-26T12:47:20.465Z,26.84
2022-08-26T12:49:29.103Z,26.78
2022-08-26T12:51:33.049Z,26.33
2022-08-26T12:53:43.362Z,26.67
2022-08-26T12:55:59.198Z,26.65
2022-08-26T12:58:11.305Z,26.63
2022-08-26T13:00:37.582Z,26.41
2022-08-26T13:02:40.353Z,26.30
2022-08-26T13:04:43.948Z,26.25
2022-08-26T13:06:48.632Z,26.03
2022-08-26T13:09:09.029Z,25.80
2022-08-26T13:11:31.619Z,25.70
2022-08-26T13:13:34.257Z,25.31
2022-08-26T13:15:37.090Z,25.41
2022-08-26T13:17:39.735Z,25.29
2022-08-26T13:19:42.337Z,24.74
2022-08-26T13:21:48.428Z,24.88
2022-08-26T13:23:52.054Z,24.50
2022-08-26T13:25:54.658Z,24.27
2022-08-26T13:27:57.393Z,23.89
2022-08-26T13:30:01.572Z,23.07
2022-08-26T13:32:06.795Z,23.18
2022-08-26T13:34:19.234Z,23.10
2022-08-26T13:36:22.081Z,22.81
2022-08-26T13:38:33.329Z,23.06
2022-08-26T13:40:37.723Z,22.89
2022-08-26T13:42:49.665Z,23.03
2022-08-26T13:44:58.037Z,23.08
2022-08-26T13:47:00.818Z,23.12
2022-08-26T13:49:03.655Z,23.11
2022-08-26T13:51:08.859Z,23.20
2022-08-26T13:53:11.748Z,22.93
2022-08-26T13:55:14.451Z,22.93
2022-08-26T13:57:17.124Z,23.14
2022-08-26T13:59:19.744Z,22.02
2022-08-26T14:01:22.673Z,22.48
2022-08-26T14:03:25.301Z,23.09
2022-08-26T14:05:28.634Z,22.91
2022-08-26T14:07:31.385Z,22.98
2022-08-26T14:09:37.847Z,22.65
2022-08-26T14:11:53.757Z,23.11
2022-08-26T14:13:57.569Z,22.61
2022-08-26T14:16:01.661Z,22.43
2022-08-26T14:18:07.899Z,23.10
2022-08-26T14:20:19.577Z,22.70
2022-08-26T14:22:23.054Z,23.13
2022-08-26T14:24:25.797Z,22.76
2022-08-26T14:26:29.780Z,22.49
2022-08-26T14:28:32.773Z,23.36
2022-08-26T14:30:37.175Z,23.60
2022-08-26T14:32:45.262Z,23.15
2022-08-26T14:34:47.923Z,22.91
2022-08-26T14:36:50.537Z,23.53
2022-08-26T14:38:54.289Z,23.65
2022-08-26T14:40:56.910Z,23.51
2022-08-26T14:43:00.542Z,23.83
2022-08-26T14:45:06.272Z,23.80
2022-08-26T14:47:09.347Z,23.79
2022-08-26T14:49:12.734Z,24.02
2022-08-26T14:51:15.358Z,23.67
2022-08-26T14:53:36.518Z,23.73
2022-08-26T14:55:42.409Z,24.06
2022-08-26T14:57:45.054Z,24.31
2022-08-26T14:59:50.384Z,24.22
2022-08-26T15:01:54.397Z,23.98
2022-08-26T15:03:57.233Z,23.99
2022-08-26T15:05:59.967Z,23.50
2022-08-26T15:08:04.678Z,23.27
2022-08-26T15:10:11.819Z,23.42
2022-08-26T15:12:14.448Z,24.01
2022-08-26T15:14:19.409Z,24.03
2022-08-26T15:16:22.861Z,23.60
2022-08-26T15:18:25.550Z,24.09
2022-08-26T15:20:28.170Z,23.71
2022-08-26T15:22:30.795Z,24.05
2022-08-26T15:24:33.437Z,24.02
2022-08-26T15:26:36.029Z,23.50
2022-08-26T15:28:39.551Z,24.12
2022-08-26T15:30:43.138Z,24.13
2022-08-26T15:32:45.817Z,24.14
2022-08-26T15:34:50.067Z,24.25
2022-08-26T15:36:52.674Z,24.08
2022-08-26T15:38:56.472Z,23.87
2022-08-26T15:41:03.195Z,24.19
2022-08-26T15:43:25.443Z,23.28
2022-08-26T15:45:29.226Z,24.11
2022-08-26T15:47:31.836Z,23.50
2022-08-26T15:49:41.082Z,23.83
2022-08-26T15:51:45.438Z,24.20
2022-08-26T15:53:50.741Z,24.09
2022-08-26T15:55:55.345Z,23.97
2022-08-26T15:57:58.944Z,23.48
2022-08-26T16:00:01.553Z,24.12
2022-08-26T16:02:14.622Z,23.54
2022-08-26T16:04:18.647Z,23.90
2022-08-26T16:06:25.820Z,24.11
2022-08-26T16:08:28.964Z,23.87
2022-08-26T16:10:38.982Z,24.07
2022-08-26T16:12:41.761Z,23.62
2022-08-26T16:14:44.473Z,23.92
2022-08-26T16:16:47.311Z,23.95
2022-08-26T16:18:49.919Z,23.88
2022-08-26T16:21:12.548Z,23.99
2022-08-26T16:23:17.461Z,23.97
2022-08-26T16:25:20.526Z,23.73
2022-08-26T16:27:23.260Z,23.61
2022-08-26T16:29:26.848Z,23.85
2022-08-26T16:31:29.531Z,23.69
2022-08-26T16:33:32.216Z,23.68
2022-08-26T16:35:34.933Z,23.35
2022-08-26T16:37:39.021Z,23.15
2022-08-26T16:39:45.069Z,23.70
2022-08-26T16:41:47.994Z,23.58
2022-08-26T16:43:50.876Z,23.72
2022-08-26T16:45:53.468Z,23.69
2022-08-26T16:47:56.073Z,23.71
2022-08-26T16:49:58.729Z,23.54
2022-08-26T16:52:01.382Z,23.42
2022-08-26T16:54:05.680Z,23.52
2022-08-26T16:56:23.403Z,23.89
2022-08-26T16:58:33.278Z,23.66
2022-08-26T17:00:35.855Z,23.19
2022-08-26T17:02:39.570Z,23.77
2022-08-26T17:04:42.287Z,23.80
2022-08-26T17:06:50.359Z,23.74
2022-08-26T17:08:53.099Z,23.46
2022-08-26T17:10:55.870Z,23.83
2022-08-26T17:12:58.941Z,23.59
2022-08-26T17:15:02.191Z,23.70
2022-08-26T17:17:06.059Z,23.67
2022-08-26T17:19:08.692Z,23.62
2022-08-26T17:21:13.218Z,23.50
2022-08-26T17:23:17.089Z,23.77
2022-08-26T17:25:27.246Z,23.76
2022-08-26T17:27:30.249Z,23.63
2022-08-26T17:29:33.216Z,23.32
2022-08-26T17:31:35.803Z,23.44
2022-08-26T17:33:39.747Z,23.61
2022-08-26T17:35:42.328Z,23.33
2022-08-26T17:37:45.026Z,23.37
2022-08-26T17:39:47.714Z,23.32
2022-08-26T17:41:50.315Z,23.32
2022-08-26T17:43:52.899Z,22.79
2022-08-26T17:46:04.691Z,23.41
2022-08-26T17:48:11.095Z,23.10
2022-08-26T17:50:17.626Z,23.29
2022-08-26T17:52:20.486Z,23.22
2022-08-26T17:54:23.090Z,22.96
2022-08-26T17:56:28.470Z,23.17
2022-08-26T17:58:31.096Z,22.57
2022-08-26T18:00:37.624Z,23.09
2022-08-26T18:02:40.748Z,22.62
2022-08-26T18:04:43.820Z,23.03
2022-08-26T18:06:47.691Z,22.88
2022-08-26T18:08:50.758Z,22.88
2022-08-26T18:10:53.308Z,22.94
2022-08-26T18:12:56.069Z,22.11
2022-08-26T18:14:58.700Z,21.93
2022-08-26T18:17:01.535Z,22.78
2022-08-26T18:19:06.294Z,22.97
2022-08-26T18:21:15.889Z,22.81
2022-08-26T18:23:19.006Z,22.16
2022-08-26T18:25:21.869Z,22.27
2022-08-26T18:27:24.606Z,22.66
2022-08-26T18:29:27.530Z,22.53
2022-08-26T18:31:31.071Z,22.71
2022-08-26T18:33:33.697Z,22.05
2022-08-26T18:35:41.413Z,22.70
2022-08-26T18:37:45.291Z,22.64
2022-08-26T18:39:48.697Z,22.38
2022-08-26T18:41:55.127Z,22.65
2022-08-26T18:43:58.665Z,22.64
2022-08-26T18:46:08.090Z,22.64
2022-08-26T18:48:11.151Z,22.39
2022-08-26T18:50:18.948Z,22.37
2022-08-26T18:52:22.448Z,22.38
2022-08-26T18:54:27.025Z,21.63
2022-08-26T18:56:30.974Z,22.44
2022-08-26T18:58:33.548Z,21.66
2022-08-26T19:00:36.354Z,22.33
2022-08-26T19:02:39.098Z,22.47
2022-08-26T19:04:42.000Z,22.26
2022-08-26T19:06:48.258Z,22.48
2022-08-26T19:08:50.861Z,21.98
2022-08-26T19:10:53.519Z,21.65
2022-08-26T19:13:00.107Z,21.83
2022-08-26T19:15:03.899Z,22.35
2022-08-26T19:17:06.690Z,22.22
2022-08-26T19:19:09.907Z,22.43
2022-08-26T19:21:13.934Z,22.43
2022-08-26T19:23:33.668Z,22.33
2022-08-26T19:25:45.973Z,22.39
2022-08-26T19:27:48.596Z,22.20
2022-08-26T19:29:51.253Z,22.22
2022-08-26T19:31:54.094Z,22.17
2022-08-26T19:33:58.139Z,22.22
2022-08-26T19:36:03.685Z,22.22
2022-08-26T19:38:09.725Z,22.13
2022-08-26T19:40:12.428Z,22.15
2022-08-26T19:42:15.089Z,22.06
2022-08-26T19:44:39.582Z,22.21
2022-08-26T19:46:42.246Z,22.08
2022-08-26T19:48:46.182Z,22.26
2022-08-26T19:50:48.825Z,21.57
2022-08-26T19:52:51.528Z,22.08
2022-08-26T19:54:54.162Z,21.68
2022-08-26T19:56:56.871Z,22.09
2022-08-26T19:58:59.450Z,22.07
2022-08-26T20:01:05.904Z,21.60
2022-08-26T20:03:11.760Z,21.87
2022-08-26T20:05:22.781Z,21.56
2022-08-26T20:07:27.101Z,21.98
2022-08-26T20:09:30.825Z,22.23
2022-08-26T20:11:33.471Z,21.44
2022-08-26T20:13:37.164Z,22.29
2022-08-26T20:15:40.051Z,21.72
2022-08-26T20:17:42.907Z,21.88
2022-08-26T20:20:04.363Z,22.17
2022-08-26T20:22:07.323Z,22.08
2022-08-26T20:24:16.690Z,22.23
2022-08-26T20:26:19.338Z,22.14
2022-08-26T20:28:21.905Z,21.76
2022-08-26T20:30:24.683Z,21.96
2022-08-26T20:32:30.631Z,22.30
2022-08-26T20:34:36.633Z,22.07
2022-08-26T20:36:41.017Z,21.75
2022-08-26T20:38:44.961Z,22.20
2022-08-26T20:40:47.520Z,22.22
2022-08-26T20:42:50.169Z,22.28
2022-08-26T20:44:54.690Z,22.18
2022-08-26T20:46:59.169Z,21.69
2022-08-26T20:49:02.857Z,22.22
2022-08-26T20:51:17.399Z,22.35
2022-08-26T20:53:19.964Z,21.56
2022-08-26T20:55:27.347Z,22.35
2022-08-26T20:57:29.962Z,22.06
2022-08-26T20:59:32.692Z,22.07
2022-08-26T21:01:42.025Z,22.29
2022-08-26T21:03:45.619Z,22.22
2022-08-26T21:05:48.248Z,22.30
2022-08-26T21:07:51.438Z,22.40
2022-08-26T21:09:54.043Z,22.20
2022-08-26T21:11:56.808Z,21.73
2022-08-26T21:14:15.971Z,22.36
2022-08-26T21:16:19.625Z,21.59
2022-08-26T21:18:22.300Z,21.62
2022-08-26T21:20:24.976Z,22.06
2022-08-26T21:22:29.007Z,22.10
2022-08-26T21:24:32.453Z,21.99
2022-08-26T21:26:35.101Z,22.40
2022-08-26T21:28:40.997Z,22.25
2022-08-26T21:30:43.636Z,21.87
2022-08-26T21:32:46.237Z,21.79
2022-08-26T21:34:48.870Z,21.57
2022-08-26T21:36:51.458Z,21.85
2022-08-26T21:38:59.565Z,22.34
2022-08-26T21:41:16.417Z,22.02
2022-08-26T21:43:25.991Z,21.84
2022-08-26T21:45:41.254Z,21.99
2022-08-26T21:47:44.672Z,21.64
2022-08-26T21:49:47.817Z,22.05
2022-08-26T21:51:50.533Z,22.00
2022-08-26T21:53:53.209Z,22.12
2022-08-26T21:56:16.561Z,22.25
2022-08-26T21:58:19.413Z,22.16
2022-08-26T22:00:22.209Z,22.06
2022-08-26T22:02:25.005Z,22.31
2022-08-26T22:04:27.886Z,21.58
2022-08-26T22:06:33.117Z,22.22
2022-08-26T22:08:36.557Z,22.03
2022-08-26T22:10:41.523Z,22.15
2022-08-26T22:12:44.200Z,22.15
2022-08-26T22:14:47.134Z,22.04
2022-08-26T22:16:50.484Z,22.01
2022-08-26T22:18:55.189Z,20.97
2022-08-26T22:21:02.275Z,22.10
2022-08-26T22:23:05.479Z,21.85
2022-08-26T22:25:08.826Z,21.94
2022-08-26T22:27:12.909Z,21.90
2022-08-26T22:29:16.368Z,22.00
2022-08-26T22:31:19.068Z,21.41
2022-08-26T22:33:29.219Z,21.96
2022-08-26T22:35:31.949Z,21.88
2022-08-26T22:37:34.547Z,21.68
2022-08-26T22:39:38.236Z,21.75
2022-08-26T22:41:43.396Z,21.89
2022-08-26T22:43:47.033Z,21.86
2022-08-26T22:45:51.098Z,21.85
2022-08-26T22:47:53.733Z,21.57
2022-08-26T22:49:56.754Z,21.56
2022-08-26T22:51:59.414Z,21.55
2022-08-26T22:54:02.020Z,21.55
2022-08-26T22:56:05.599Z,21.75
2022-08-26T22:58:08.275Z,21.52
2022-08-26T23:00:13.792Z,21.41
2022-08-26T23:02:16.878Z,21.10
2022-08-26T23:04:20.841Z,21.23
2022-08-26T23:06:23.494Z,21.08
2022-08-26T23:08:27.457Z,21.77
2022-08-26T23:10:30.110Z,21.50
2022-08-26T23:12:33.172Z,21.79
2022-08-26T23:14:36.539Z,21.09
2022-08-26T23:16:41.729Z,21.72
2022-08-26T23:19:11.380Z,21.80
2022-08-26T23:21:14.087Z,21.33
2022-08-26T23:23:17.322Z,21.12
2022-08-26T23:25:20.865Z,21.68
2022-08-26T23:27:23.641Z,21.82
2022-08-26T23:29:27.021Z,21.87
2022-08-26T23:31:29.951Z,21.83
2022-08-26T23:34:04.709Z,21.52
2022-08-26T23:36:08.438Z,21.48
2022-08-26T23:38:14.043Z,21.32
2022-08-26T23:40:26.418Z,21.94
2022-08-26T23:42:29.063Z,21.39
2022-08-26T23:44:39.888Z,21.52
2022-08-26T23:46:42.529Z,21.80
2022-08-26T23:48:45.175Z,21.99
2022-08-26T23:51:06.321Z,21.37
2022-08-26T23:53:09.074Z,21.91
2022-08-26T23:55:13.409Z,22.03
2022-08-26T23:57:34.197Z,22.06
2022-08-26T23:59:39.384Z,21.98
